ANA223 RJTT-EDDF
Flight info
| Callsign | ANA223 |
|---|---|
| Flight time | N/A |
| Altitude | 33000 |
| Route | INUBO Y808 PUTER/N0501F340 A590 POXED/N0496F350 A590 POWAL DCT HEDMI R338 MARCC DCT JUJXI/N0498F370 DCT 71N160W DCT AGMIF DCT 79N120W 80N100W 80N080W/N0499F390 DCT BUDUM/M085F390 DCT 80N060W 78N040W 76N030W 73N020W 68N010W DCT RIXUN/N0490F390 DCT MOCHA/N0490F410 DCT FORTY DCT ODMIX DCT CUTEL DCT VENAS/N0491F400 DCT TOPPA/N0491F410 DCT AMGOD DCT PETIK DCT SOGPO DCT DIXAT DIXAT1A |
| Aircraft | B789/H-SDE1E2E3FGHIJ2J3J4J5M1RWXY/LB1D1 |
Departure
| Time | 2026-05-07 04:00 |
|---|---|
| Airport | Tokyo Haneda International Airport (RJTT) |
Arrival
| Time | N/A |
|---|---|
| Airport | Frankfurt Main Airport (EDDF) |
| Time | Latitude | Longitude | Altitude | Speed | Heading |
|---|---|---|---|---|---|
| 2026-05-07 03:39 | 35.54861 | 139.79386 | 33 ft | 0 kts | 330° |
| 2026-05-07 03:47 | 35.54856 | 139.79389 | 32 ft | 4 kts | 330° |
| 2026-05-07 03:48 | 35.54833 | 139.79405 | 30 ft | 3 kts | 330° |
| 2026-05-07 03:48 | 35.54815 | 139.79416 | 31 ft | 4 kts | 351° |
| 2026-05-07 03:48 | 35.54795 | 139.79414 | 32 ft | 4 kts | 33° |
| 2026-05-07 03:48 | 35.54777 | 139.79393 | 31 ft | 3 kts | 58° |
| 2026-05-07 03:49 | 35.54764 | 139.79366 | 32 ft | 4 kts | 60° |
| 2026-05-07 03:49 | 35.54750 | 139.79337 | 32 ft | 4 kts | 60° |
| 2026-05-07 03:49 | 35.54737 | 139.79309 | 32 ft | 4 kts | 60° |
| 2026-05-07 03:49 | 35.54734 | 139.79302 | 32 ft | 0 kts | 60° |
| 2026-05-07 03:52 | 35.54736 | 139.79310 | 32 ft | 2 kts | 69° |
| 2026-05-07 03:52 | 35.54734 | 139.79340 | 33 ft | 8 kts | 99° |
| 2026-05-07 03:52 | 35.54725 | 139.79447 | 32 ft | 14 kts | 88° |
| 2026-05-07 03:52 | 35.54764 | 139.79528 | 32 ft | 10 kts | 27° |
| 2026-05-07 03:53 | 35.54825 | 139.79520 | 33 ft | 9 kts | 336° |
| 2026-05-07 03:53 | 35.54900 | 139.79468 | 32 ft | 15 kts | 329° |
| 2026-05-07 03:53 | 35.55005 | 139.79394 | 32 ft | 19 kts | 330° |
| 2026-05-07 03:53 | 35.55105 | 139.79322 | 30 ft | 13 kts | 329° |
| 2026-05-07 03:54 | 35.55178 | 139.79271 | 30 ft | 11 kts | 331° |
| 2026-05-07 03:54 | 35.55223 | 139.79240 | 31 ft | 4 kts | 331° |
| 2026-05-07 03:54 | 35.55227 | 139.79237 | 31 ft | 3 kts | 331° |
| 2026-05-07 03:54 | 35.55261 | 139.79214 | 32 ft | 9 kts | 331° |
| 2026-05-07 03:55 | 35.55332 | 139.79165 | 32 ft | 15 kts | 330° |
| 2026-05-07 03:55 | 35.55444 | 139.79085 | 31 ft | 22 kts | 330° |
| 2026-05-07 03:55 | 35.55591 | 139.78980 | 31 ft | 25 kts | 330° |
| 2026-05-07 03:55 | 35.55741 | 139.78876 | 27 ft | 25 kts | 331° |
| 2026-05-07 03:56 | 35.55887 | 139.78773 | 28 ft | 24 kts | 329° |
| 2026-05-07 03:56 | 35.56025 | 139.78675 | 28 ft | 22 kts | 330° |
| 2026-05-07 03:56 | 35.56157 | 139.78582 | 29 ft | 21 kts | 330° |
| 2026-05-07 03:56 | 35.56273 | 139.78496 | 30 ft | 18 kts | 330° |
| 2026-05-07 03:57 | 35.56356 | 139.78437 | 30 ft | 10 kts | 330° |
| 2026-05-07 03:57 | 35.56406 | 139.78402 | 30 ft | 8 kts | 332° |
| 2026-05-07 03:57 | 35.56441 | 139.78393 | 29 ft | 3 kts | 3° |
| 2026-05-07 03:57 | 35.56459 | 139.78412 | 29 ft | 4 kts | 60° |
| 2026-05-07 03:58 | 35.56492 | 139.78481 | 31 ft | 12 kts | 60° |
| 2026-05-07 03:58 | 35.56532 | 139.78566 | 32 ft | 10 kts | 60° |
| 2026-05-07 03:58 | 35.56558 | 139.78630 | 34 ft | 6 kts | 80° |
| 2026-05-07 03:58 | 35.56547 | 139.78682 | 35 ft | 5 kts | 127° |
| 2026-05-07 03:59 | 35.56530 | 139.78698 | 35 ft | 4 kts | 150° |
| 2026-05-07 03:59 | 35.56502 | 139.78718 | 35 ft | 9 kts | 150° |
| 2026-05-07 03:59 | 35.56316 | 139.78849 | 33 ft | 60 kts | 150° |
| 2026-05-07 03:59 | 35.55771 | 139.79233 | 32 ft | 119 kts | 150° |
| 2026-05-07 04:00 | 35.54905 | 139.79846 | 37 ft | 168 kts | 150° |
| 2026-05-07 04:00 | 35.53829 | 139.80601 | 489 ft | 175 kts | 156° |
| 2026-05-07 04:00 | 35.52775 | 139.81425 | 1107 ft | 192 kts | 141° |
| 2026-05-07 04:00 | 35.51871 | 139.82657 | 1949 ft | 191 kts | 130° |
| 2026-05-07 04:01 | 35.50995 | 139.83955 | 2489 ft | 202 kts | 133° |
| 2026-05-07 04:01 | 35.50030 | 139.85250 | 3034 ft | 208 kts | 137° |
| 2026-05-07 04:01 | 35.48988 | 139.86557 | 3492 ft | 225 kts | 139° |
| 2026-05-07 04:01 | 35.47850 | 139.87979 | 3921 ft | 238 kts | 137° |
| 2026-05-07 04:02 | 35.46686 | 139.89464 | 4520 ft | 250 kts | 137° |
| 2026-05-07 04:02 | 35.45618 | 139.91299 | 4654 ft | 288 kts | 108° |
| 2026-05-07 04:02 | 35.45546 | 139.93732 | 5728 ft | 279 kts | 80° |
| 2026-05-07 04:02 | 35.46308 | 139.95961 | 6396 ft | 295 kts | 51° |
| 2026-05-07 04:03 | 35.47707 | 139.97823 | 7195 ft | 298 kts | 40° |
| 2026-05-07 04:03 | 35.49511 | 139.99025 | 7936 ft | 297 kts | 13° |
| 2026-05-07 04:03 | 35.51549 | 139.99221 | 8654 ft | 293 kts | 346° |
| 2026-05-07 04:03 | 35.53535 | 139.98625 | 9403 ft | 296 kts | 339° |
| 2026-05-07 04:04 | 35.55487 | 139.97874 | 10146 ft | 300 kts | 338° |
| 2026-05-07 04:04 | 35.57591 | 139.97106 | 10383 ft | 326 kts | 340° |
| 2026-05-07 04:04 | 35.59870 | 139.96355 | 10529 ft | 353 kts | 342° |
| 2026-05-07 04:04 | 35.62423 | 139.96062 | 10657 ft | 384 kts | 360° |
| 2026-05-07 04:05 | 35.65089 | 139.96260 | 11233 ft | 391 kts | 0° |
| 2026-05-07 04:05 | 35.67823 | 139.96489 | 11954 ft | 396 kts | 360° |
| 2026-05-07 04:05 | 35.70590 | 139.96668 | 12720 ft | 401 kts | 359° |
| 2026-05-07 04:05 | 35.73391 | 139.96621 | 13400 ft | 400 kts | 345° |
| 2026-05-07 04:06 | 35.76054 | 139.95721 | 14087 ft | 397 kts | 334° |
| 2026-05-07 04:06 | 35.78652 | 139.94504 | 14705 ft | 402 kts | 334° |
| 2026-05-07 04:06 | 35.81293 | 139.93236 | 15013 ft | 413 kts | 334° |
| 2026-05-07 04:06 | 35.83985 | 139.91962 | 15007 ft | 411 kts | 335° |
| 2026-05-07 04:07 | 35.86647 | 139.90728 | 15005 ft | 407 kts | 335° |
| 2026-05-07 04:07 | 35.89298 | 139.89469 | 15341 ft | 408 kts | 334° |
| 2026-05-07 04:07 | 35.91937 | 139.88188 | 16094 ft | 410 kts | 335° |
| 2026-05-07 04:07 | 35.94622 | 139.86940 | 16724 ft | 415 kts | 336° |
| 2026-05-07 04:08 | 35.97487 | 139.86118 | 16988 ft | 432 kts | 351° |
| 2026-05-07 04:08 | 36.00503 | 139.86176 | 16981 ft | 435 kts | 6° |
| 2026-05-07 04:08 | 36.03429 | 139.87101 | 16991 ft | 435 kts | 19° |
| 2026-05-07 04:08 | 36.06257 | 139.88434 | 16979 ft | 435 kts | 18° |
| 2026-05-07 04:09 | 36.09083 | 139.89766 | 16981 ft | 434 kts | 18° |
| 2026-05-07 04:09 | 36.11898 | 139.91086 | 16981 ft | 433 kts | 18° |
| 2026-05-07 04:09 | 36.14695 | 139.92487 | 16977 ft | 434 kts | 26° |
| 2026-05-07 04:09 | 36.17199 | 139.94592 | 16982 ft | 438 kts | 40° |
| 2026-05-07 04:10 | 36.19252 | 139.97382 | 16984 ft | 439 kts | 55° |
| 2026-05-07 04:10 | 36.20717 | 140.00682 | 16982 ft | 439 kts | 70° |